Hlavní strana
METAR-TAF:

METAR-TAF

Letiště :

Letiště Skopje

Skopje, Makedonie

zeměpisná šířka: 41-58N, zeměpisná délka: 021-39E, výška: 238 m

Aktuální stav počasí

Zpráva byla vytvořena před 27 minutami, v 00:00 UTC
vítr z různých směrů 3 kt
Teplota 9°C
Vlhkost vzduchu 71%
Tlak 1024 hPa
Viditelnost 10 km a více
Skoro jasno ve výšce 10000 ft

METAR: LWSK 200000Z VRB03KT 9999 FEW100 09/04 Q1024 NOSIG

Čas: 02:27 (00:27 UTC)

Předpověď počasí

Zpráva byla vytvořena před 57 minutami, v 23:30 UTC
Předpověď platná od 20 v 00 UTC do 20 v 24 UTC
vítr z různých směrů 2 kt
Viditelnost 10 km a více
Skoro jasno ve výšce 5000 ft
Polojasno ve výšce 10000 ft
Změna
od 20 v 08 UTC do 20 v 10 UTC
Severoseverozápadní vítr 8 kt
Oblačno až skoro zataženo ve výšce 4000 ft

TAF: LWSK 192330Z 2000/2024 VRB02KT 9999 FEW050 SCT100 BECMG 2008/2010 34008KT BKN040

Stav a předpovědi počasí z více než 4 000 letišť (zprávy METAR a TAF).

Červené a žluté tečky na mapě představují dostupné meteorologické stanice.

Když kurzor umístíte na tečku, zobrazí se název stanice.

Pak kliknutím zobrazíte stav a předpověď počasí.

Chcete-li změnit mapu, kliknutím na zelené tlačítko se znaménkem +mapu přiblížíte, kliknutím na zelené tlačítko se znaménkem – mapu oddálíte a kliknutím na zelené šipky přejdete na sousední mapy.


METAR-TAF: